sensor_id;sensor_type;location;lat;lon;timestamp;P1;durP1;ratioP1;P2;durP2;ratioP2
17864;SDS011;9058;52.018;4.202;2023-04-10T00:00:17;15.05;;;10.05;;
17864;SDS011;9058;52.018;4.202;2023-04-10T00:02:45;11.40;;;9.80;;
17864;SDS011;9058;52.018;4.202;2023-04-10T00:05:13;10.38;;;9.32;;
17864;SDS011;9058;52.018;4.202;2023-04-10T00:07:40;9.75;;;8.75;;
17864;SDS011;9058;52.018;4.202;2023-04-10T00:10:06;11.00;;;9.02;;
17864;SDS011;9058;52.018;4.202;2023-04-10T00:12:34;11.02;;;9.38;;
17864;SDS011;9058;52.018;4.202;2023-04-10T00:15:01;13.18;;;8.95;;
17864;SDS011;9058;52.018;4.202;2023-04-10T00:17:28;10.43;;;8.57;;
17864;SDS011;9058;52.018;4.202;2023-04-10T00:19:55;12.15;;;9.05;;
17864;SDS011;9058;52.018;4.202;2023-04-10T00:22:24;10.13;;;8.45;;
17864;SDS011;9058;52.018;4.202;2023-04-10T00:24:51;10.90;;;9.25;;
17864;SDS011;9058;52.018;4.202;2023-04-10T00:27:17;9.15;;;8.20;;
17864;SDS011;9058;52.018;4.202;2023-04-10T00:29:44;11.35;;;8.50;;
17864;SDS011;9058;52.018;4.202;2023-04-10T00:32:10;10.00;;;8.13;;
17864;SDS011;9058;52.018;4.202;2023-04-10T00:34:38;10.60;;;9.50;;
17864;SDS011;9058;52.018;4.202;2023-04-10T00:37:04;11.27;;;9.35;;
17864;SDS011;9058;52.018;4.202;2023-04-10T00:39:32;9.32;;;8.35;;
17864;SDS011;9058;52.018;4.202;2023-04-10T00:41:59;10.55;;;8.73;;
17864;SDS011;9058;52.018;4.202;2023-04-10T00:44:26;10.70;;;8.95;;
17864;SDS011;9058;52.018;4.202;2023-04-10T00:46:52;10.25;;;9.15;;
17864;SDS011;9058;52.018;4.202;2023-04-10T00:49:19;10.57;;;8.73;;
17864;SDS011;9058;52.018;4.202;2023-04-10T00:51:46;12.40;;;9.70;;
17864;SDS011;9058;52.018;4.202;2023-04-10T00:54:14;11.68;;;9.68;;
17864;SDS011;9058;52.018;4.202;2023-04-10T00:56:42;14.63;;;10.65;;
17864;SDS011;9058;52.018;4.202;2023-04-10T00:59:10;11.30;;;9.80;;
17864;SDS011;9058;52.018;4.202;2023-04-10T01:01:36;11.20;;;9.77;;
17864;SDS011;9058;52.018;4.202;2023-04-10T01:04:03;10.63;;;9.48;;
17864;SDS011;9058;52.018;4.202;2023-04-10T01:06:41;12.43;;;9.52;;
17864;SDS011;9058;52.018;4.202;2023-04-10T01:09:13;10.88;;;9.35;;
17864;SDS011;9058;52.018;4.202;2023-04-10T01:11:46;12.73;;;10.55;;
17864;SDS011;9058;52.018;4.202;2023-04-10T01:14:15;12.65;;;9.77;;
17864;SDS011;9058;52.018;4.202;2023-04-10T01:16:45;12.27;;;9.57;;
17864;SDS011;9058;52.018;4.202;2023-04-10T01:19:14;12.55;;;10.70;;
17864;SDS011;9058;52.018;4.202;2023-04-10T01:21:44;11.98;;;10.63;;
17864;SDS011;9058;52.018;4.202;2023-04-10T01:24:15;12.10;;;10.10;;
17864;SDS011;9058;52.018;4.202;2023-04-10T01:26:50;11.25;;;9.88;;
17864;SDS011;9058;52.018;4.202;2023-04-10T01:29:20;12.90;;;10.18;;
17864;SDS011;9058;52.018;4.202;2023-04-10T01:31:49;12.63;;;10.45;;
17864;SDS011;9058;52.018;4.202;2023-04-10T01:34:18;12.85;;;10.35;;
17864;SDS011;9058;52.018;4.202;2023-04-10T01:36:46;13.25;;;11.45;;
17864;SDS011;9058;52.018;4.202;2023-04-10T01:39:15;12.95;;;10.45;;
17864;SDS011;9058;52.018;4.202;2023-04-10T01:41:43;13.60;;;11.27;;
17864;SDS011;9058;52.018;4.202;2023-04-10T01:44:10;14.70;;;11.55;;
17864;SDS011;9058;52.018;4.202;2023-04-10T01:46:41;13.02;;;11.07;;
17864;SDS011;9058;52.018;4.202;2023-04-10T01:49:08;13.23;;;11.30;;
17864;SDS011;9058;52.018;4.202;2023-04-10T01:51:35;16.15;;;12.10;;
17864;SDS011;9058;52.018;4.202;2023-04-10T01:54:02;14.77;;;12.65;;
17864;SDS011;9058;52.018;4.202;2023-04-10T01:56:29;16.63;;;13.27;;
17864;SDS011;9058;52.018;4.202;2023-04-10T01:58:58;17.02;;;13.30;;
17864;SDS011;9058;52.018;4.202;2023-04-10T02:01:24;17.92;;;13.00;;
17864;SDS011;9058;52.018;4.202;2023-04-10T02:03:53;17.98;;;13.70;;
17864;SDS011;9058;52.018;4.202;2023-04-10T02:06:21;17.13;;;13.20;;
17864;SDS011;9058;52.018;4.202;2023-04-10T02:08:50;18.05;;;14.13;;
17864;SDS011;9058;52.018;4.202;2023-04-10T02:11:21;17.20;;;13.88;;
17864;SDS011;9058;52.018;4.202;2023-04-10T02:13:50;17.33;;;14.07;;
17864;SDS011;9058;52.018;4.202;2023-04-10T02:16:18;18.70;;;13.65;;
17864;SDS011;9058;52.018;4.202;2023-04-10T02:18:46;16.95;;;14.43;;
17864;SDS011;9058;52.018;4.202;2023-04-10T02:21:16;17.77;;;14.02;;
17864;SDS011;9058;52.018;4.202;2023-04-10T02:23:42;17.52;;;13.75;;
17864;SDS011;9058;52.018;4.202;2023-04-10T02:26:09;15.65;;;13.20;;
17864;SDS011;9058;52.018;4.202;2023-04-10T02:28:36;16.40;;;12.63;;
17864;SDS011;9058;52.018;4.202;2023-04-10T02:31:03;16.23;;;12.50;;
17864;SDS011;9058;52.018;4.202;2023-04-10T02:33:29;15.80;;;13.13;;
17864;SDS011;9058;52.018;4.202;2023-04-10T02:35:56;14.55;;;12.25;;
17864;SDS011;9058;52.018;4.202;2023-04-10T02:38:24;16.80;;;12.80;;
17864;SDS011;9058;52.018;4.202;2023-04-10T02:40:52;15.25;;;12.75;;
17864;SDS011;9058;52.018;4.202;2023-04-10T02:43:19;17.05;;;13.27;;
17864;SDS011;9058;52.018;4.202;2023-04-10T02:45:45;18.55;;;13.15;;
17864;SDS011;9058;52.018;4.202;2023-04-10T02:48:13;18.08;;;13.35;;
17864;SDS011;9058;52.018;4.202;2023-04-10T02:50:40;17.17;;;12.85;;
17864;SDS011;9058;52.018;4.202;2023-04-10T02:53:10;15.45;;;12.95;;
17864;SDS011;9058;52.018;4.202;2023-04-10T02:55:38;14.35;;;12.05;;
17864;SDS011;9058;52.018;4.202;2023-04-10T02:58:04;14.48;;;12.23;;
17864;SDS011;9058;52.018;4.202;2023-04-10T03:00:31;16.75;;;13.38;;
17864;SDS011;9058;52.018;4.202;2023-04-10T03:02:58;16.00;;;12.88;;
17864;SDS011;9058;52.018;4.202;2023-04-10T03:05:24;14.90;;;11.55;;
17864;SDS011;9058;52.018;4.202;2023-04-10T03:07:51;14.23;;;12.07;;
17864;SDS011;9058;52.018;4.202;2023-04-10T03:10:18;15.23;;;11.85;;
17864;SDS011;9058;52.018;4.202;2023-04-10T03:12:46;15.82;;;12.27;;
17864;SDS011;9058;52.018;4.202;2023-04-10T03:15:12;13.98;;;11.23;;
17864;SDS011;9058;52.018;4.202;2023-04-10T03:17:39;15.63;;;12.15;;
17864;SDS011;9058;52.018;4.202;2023-04-10T03:20:06;17.65;;;12.95;;
17864;SDS011;9058;52.018;4.202;2023-04-10T03:22:32;17.27;;;12.60;;
17864;SDS011;9058;52.018;4.202;2023-04-10T03:25:00;15.07;;;13.25;;
17864;SDS011;9058;52.018;4.202;2023-04-10T03:27:27;17.52;;;14.02;;
17864;SDS011;9058;52.018;4.202;2023-04-10T03:29:58;19.10;;;13.88;;
17864;SDS011;9058;52.018;4.202;2023-04-10T03:32:24;19.25;;;14.75;;
17864;SDS011;9058;52.018;4.202;2023-04-10T03:34:52;16.75;;;14.75;;
17864;SDS011;9058;52.018;4.202;2023-04-10T03:37:18;18.33;;;14.52;;
17864;SDS011;9058;52.018;4.202;2023-04-10T03:39:45;18.33;;;13.70;;
17864;SDS011;9058;52.018;4.202;2023-04-10T03:42:11;16.17;;;13.07;;
17864;SDS011;9058;52.018;4.202;2023-04-10T03:44:38;17.20;;;13.40;;
17864;SDS011;9058;52.018;4.202;2023-04-10T03:47:06;13.70;;;12.25;;
17864;SDS011;9058;52.018;4.202;2023-04-10T03:49:32;16.05;;;13.05;;
17864;SDS011;9058;52.018;4.202;2023-04-10T03:51:59;14.80;;;12.18;;
17864;SDS011;9058;52.018;4.202;2023-04-10T03:54:25;14.00;;;11.65;;
17864;SDS011;9058;52.018;4.202;2023-04-10T03:56:53;14.52;;;12.10;;
17864;SDS011;9058;52.018;4.202;2023-04-10T03:59:20;13.52;;;11.48;;
17864;SDS011;9058;52.018;4.202;2023-04-10T04:01:47;14.10;;;11.35;;
17864;SDS011;9058;52.018;4.202;2023-04-10T04:04:15;12.32;;;10.68;;
17864;SDS011;9058;52.018;4.202;2023-04-10T04:06:42;13.20;;;10.07;;
17864;SDS011;9058;52.018;4.202;2023-04-10T04:09:08;13.13;;;10.88;;
17864;SDS011;9058;52.018;4.202;2023-04-10T04:11:35;13.57;;;10.45;;
17864;SDS011;9058;52.018;4.202;2023-04-10T04:14:02;11.93;;;9.63;;
17864;SDS011;9058;52.018;4.202;2023-04-10T04:16:29;10.30;;;9.20;;
17864;SDS011;9058;52.018;4.202;2023-04-10T04:18:55;10.27;;;9.27;;
17864;SDS011;9058;52.018;4.202;2023-04-10T04:21:23;12.27;;;9.55;;
17864;SDS011;9058;52.018;4.202;2023-04-10T04:23:50;10.05;;;8.82;;
17864;SDS011;9058;52.018;4.202;2023-04-10T04:26:16;8.93;;;7.80;;
17864;SDS011;9058;52.018;4.202;2023-04-10T04:28:43;10.55;;;8.18;;
17864;SDS011;9058;52.018;4.202;2023-04-10T04:31:09;9.30;;;7.65;;
17864;SDS011;9058;52.018;4.202;2023-04-10T04:33:36;8.38;;;7.47;;
17864;SDS011;9058;52.018;4.202;2023-04-10T04:36:02;8.13;;;7.28;;
17864;SDS011;9058;52.018;4.202;2023-04-10T04:38:33;7.75;;;6.90;;
17864;SDS011;9058;52.018;4.202;2023-04-10T04:41:00;8.63;;;7.10;;
17864;SDS011;9058;52.018;4.202;2023-04-10T04:43:26;8.13;;;7.00;;
17864;SDS011;9058;52.018;4.202;2023-04-10T04:45:52;7.47;;;6.78;;
17864;SDS011;9058;52.018;4.202;2023-04-10T04:48:19;7.93;;;6.78;;
17864;SDS011;9058;52.018;4.202;2023-04-10T04:50:46;8.93;;;6.38;;
17864;SDS011;9058;52.018;4.202;2023-04-10T04:53:13;6.80;;;6.05;;
17864;SDS011;9058;52.018;4.202;2023-04-10T04:55:41;7.40;;;5.40;;
17864;SDS011;9058;52.018;4.202;2023-04-10T04:58:07;6.78;;;5.93;;
17864;SDS011;9058;52.018;4.202;2023-04-10T05:00:35;7.20;;;6.50;;
17864;SDS011;9058;52.018;4.202;2023-04-10T05:03:02;7.43;;;6.57;;
17864;SDS011;9058;52.018;4.202;2023-04-10T05:05:30;8.05;;;6.40;;
17864;SDS011;9058;52.018;4.202;2023-04-10T05:07:56;6.70;;;6.00;;
17864;SDS011;9058;52.018;4.202;2023-04-10T05:10:22;7.65;;;6.07;;
17864;SDS011;9058;52.018;4.202;2023-04-10T05:12:51;7.68;;;6.90;;
17864;SDS011;9058;52.018;4.202;2023-04-10T05:15:18;7.05;;;6.38;;
17864;SDS011;9058;52.018;4.202;2023-04-10T05:17:45;6.50;;;5.90;;
17864;SDS011;9058;52.018;4.202;2023-04-10T05:20:15;7.13;;;5.85;;
17864;SDS011;9058;52.018;4.202;2023-04-10T05:22:41;7.20;;;6.50;;
17864;SDS011;9058;52.018;4.202;2023-04-10T05:25:08;6.40;;;5.68;;
17864;SDS011;9058;52.018;4.202;2023-04-10T05:27:35;6.60;;;5.93;;
17864;SDS011;9058;52.018;4.202;2023-04-10T05:30:05;6.35;;;5.75;;
17864;SDS011;9058;52.018;4.202;2023-04-10T05:32:31;6.35;;;5.75;;
17864;SDS011;9058;52.018;4.202;2023-04-10T05:34:58;6.88;;;6.28;;
17864;SDS011;9058;52.018;4.202;2023-04-10T05:37:24;7.10;;;6.43;;
17864;SDS011;9058;52.018;4.202;2023-04-10T05:39:51;7.20;;;6.00;;
17864;SDS011;9058;52.018;4.202;2023-04-10T05:42:18;7.03;;;6.32;;
17864;SDS011;9058;52.018;4.202;2023-04-10T05:44:45;6.93;;;6.22;;
17864;SDS011;9058;52.018;4.202;2023-04-10T05:47:16;6.60;;;5.50;;
17864;SDS011;9058;52.018;4.202;2023-04-10T05:49:43;7.40;;;6.30;;
17864;SDS011;9058;52.018;4.202;2023-04-10T05:52:11;7.20;;;6.25;;
17864;SDS011;9058;52.018;4.202;2023-04-10T05:54:37;7.88;;;7.18;;
17864;SDS011;9058;52.018;4.202;2023-04-10T05:57:04;6.68;;;6.05;;
17864;SDS011;9058;52.018;4.202;2023-04-10T05:59:31;6.35;;;5.75;;
17864;SDS011;9058;52.018;4.202;2023-04-10T06:01:58;7.07;;;6.25;;
17864;SDS011;9058;52.018;4.202;2023-04-10T06:04:26;6.43;;;5.80;;
17864;SDS011;9058;52.018;4.202;2023-04-10T06:06:52;7.28;;;5.72;;
17864;SDS011;9058;52.018;4.202;2023-04-10T06:09:19;6.57;;;5.97;;
17864;SDS011;9058;52.018;4.202;2023-04-10T06:11:47;6.15;;;5.55;;
17864;SDS011;9058;52.018;4.202;2023-04-10T06:14:13;6.47;;;5.72;;
17864;SDS011;9058;52.018;4.202;2023-04-10T06:16:40;6.57;;;5.68;;
17864;SDS011;9058;52.018;4.202;2023-04-10T06:19:07;9.10;;;6.25;;
17864;SDS011;9058;52.018;4.202;2023-04-10T06:21:37;7.63;;;6.18;;
17864;SDS011;9058;52.018;4.202;2023-04-10T06:24:03;6.38;;;5.78;;
17864;SDS011;9058;52.018;4.202;2023-04-10T06:26:36;7.70;;;6.68;;
17864;SDS011;9058;52.018;4.202;2023-04-10T06:29:03;7.45;;;6.20;;
17864;SDS011;9058;52.018;4.202;2023-04-10T06:31:31;6.95;;;6.15;;
17864;SDS011;9058;52.018;4.202;2023-04-10T06:33:58;7.53;;;5.90;;
17864;SDS011;9058;52.018;4.202;2023-04-10T06:36:25;7.10;;;6.40;;
17864;SDS011;9058;52.018;4.202;2023-04-10T06:38:54;7.25;;;6.18;;
17864;SDS011;9058;52.018;4.202;2023-04-10T06:41:20;6.90;;;6.20;;
17864;SDS011;9058;52.018;4.202;2023-04-10T06:43:46;8.13;;;5.70;;
17864;SDS011;9058;52.018;4.202;2023-04-10T06:46:13;6.82;;;6.22;;
17864;SDS011;9058;52.018;4.202;2023-04-10T06:48:40;7.60;;;5.65;;
17864;SDS011;9058;52.018;4.202;2023-04-10T06:51:06;7.90;;;6.15;;
17864;SDS011;9058;52.018;4.202;2023-04-10T06:53:33;6.25;;;5.65;;
17864;SDS011;9058;52.018;4.202;2023-04-10T06:56:01;6.88;;;5.95;;
17864;SDS011;9058;52.018;4.202;2023-04-10T06:58:28;6.68;;;6.07;;
17864;SDS011;9058;52.018;4.202;2023-04-10T07:00:55;6.63;;;5.97;;
17864;SDS011;9058;52.018;4.202;2023-04-10T07:03:22;6.78;;;6.00;;
17864;SDS011;9058;52.018;4.202;2023-04-10T07:05:49;7.15;;;6.32;;
17864;SDS011;9058;52.018;4.202;2023-04-10T07:08:16;8.52;;;5.82;;
17864;SDS011;9058;52.018;4.202;2023-04-10T07:10:42;7.20;;;6.47;;
17864;SDS011;9058;52.018;4.202;2023-04-10T07:13:13;6.60;;;6.00;;
17864;SDS011;9058;52.018;4.202;2023-04-10T07:15:40;8.68;;;6.60;;
17864;SDS011;9058;52.018;4.202;2023-04-10T07:18:06;7.13;;;6.43;;
17864;SDS011;9058;52.018;4.202;2023-04-10T07:20:32;8.77;;;7.00;;
17864;SDS011;9058;52.018;4.202;2023-04-10T07:22:59;8.38;;;7.13;;
17864;SDS011;9058;52.018;4.202;2023-04-10T07:25:26;8.32;;;7.50;;
17864;SDS011;9058;52.018;4.202;2023-04-10T07:27:52;7.43;;;6.65;;
17864;SDS011;9058;52.018;4.202;2023-04-10T07:30:20;7.72;;;6.93;;
17864;SDS011;9058;52.018;4.202;2023-04-10T07:32:48;7.82;;;7.03;;
17864;SDS011;9058;52.018;4.202;2023-04-10T07:35:15;8.20;;;7.40;;
17864;SDS011;9058;52.018;4.202;2023-04-10T07:37:42;8.30;;;7.53;;
17864;SDS011;9058;52.018;4.202;2023-04-10T07:40:29;6.55;;;5.82;;
17864;SDS011;9058;52.018;4.202;2023-04-10T07:42:56;7.68;;;6.88;;
17864;SDS011;9058;52.018;4.202;2023-04-10T07:45:24;7.57;;;6.88;;
17864;SDS011;9058;52.018;4.202;2023-04-10T07:47:52;7.97;;;7.18;;
17864;SDS011;9058;52.018;4.202;2023-04-10T07:50:19;7.90;;;7.15;;
17864;SDS011;9058;52.018;4.202;2023-04-10T07:52:46;8.15;;;6.60;;
17864;SDS011;9058;52.018;4.202;2023-04-10T07:55:14;7.53;;;6.78;;
17864;SDS011;9058;52.018;4.202;2023-04-10T07:57:40;7.47;;;6.78;;
17864;SDS011;9058;52.018;4.202;2023-04-10T08:00:07;7.53;;;6.47;;
17864;SDS011;9058;52.018;4.202;2023-04-10T08:02:35;7.38;;;6.68;;
17864;SDS011;9058;52.018;4.202;2023-04-10T08:05:01;8.00;;;6.25;;
17864;SDS011;9058;52.018;4.202;2023-04-10T08:07:28;6.43;;;5.82;;
17864;SDS011;9058;52.018;4.202;2023-04-10T08:09:54;6.78;;;6.07;;
17864;SDS011;9058;52.018;4.202;2023-04-10T08:12:21;7.57;;;6.88;;
17864;SDS011;9058;52.018;4.202;2023-04-10T08:14:48;9.20;;;6.60;;
17864;SDS011;9058;52.018;4.202;2023-04-10T08:17:15;7.32;;;6.63;;
17864;SDS011;9058;52.018;4.202;2023-04-10T08:19:43;6.60;;;5.82;;
17864;SDS011;9058;52.018;4.202;2023-04-10T08:22:10;6.90;;;6.28;;
17864;SDS011;9058;52.018;4.202;2023-04-10T08:24:36;7.90;;;6.75;;
17864;SDS011;9058;52.018;4.202;2023-04-10T08:27:03;7.40;;;6.70;;
17864;SDS011;9058;52.018;4.202;2023-04-10T08:29:32;7.13;;;6.43;;
17864;SDS011;9058;52.018;4.202;2023-04-10T08:31:58;6.90;;;6.20;;
17864;SDS011;9058;52.018;4.202;2023-04-10T08:34:25;7.07;;;6.38;;
17864;SDS011;9058;52.018;4.202;2023-04-10T08:36:53;7.50;;;6.78;;
17864;SDS011;9058;52.018;4.202;2023-04-10T08:39:20;7.05;;;6.40;;
17864;SDS011;9058;52.018;4.202;2023-04-10T08:41:46;6.93;;;6.20;;
17864;SDS011;9058;52.018;4.202;2023-04-10T08:44:13;7.20;;;6.50;;
17864;SDS011;9058;52.018;4.202;2023-04-10T08:46:41;9.07;;;6.50;;
17864;SDS011;9058;52.018;4.202;2023-04-10T08:49:08;7.25;;;6.55;;
17864;SDS011;9058;52.018;4.202;2023-04-10T08:51:35;7.15;;;6.45;;
17864;SDS011;9058;52.018;4.202;2023-04-10T08:54:05;7.53;;;6.72;;
17864;SDS011;9058;52.018;4.202;2023-04-10T08:56:32;8.05;;;6.85;;
17864;SDS011;9058;52.018;4.202;2023-04-10T08:59:00;6.47;;;5.85;;
17864;SDS011;9058;52.018;4.202;2023-04-10T09:01:26;6.70;;;6.10;;
17864;SDS011;9058;52.018;4.202;2023-04-10T09:03:53;7.25;;;6.55;;
17864;SDS011;9058;52.018;4.202;2023-04-10T09:06:20;8.45;;;6.82;;
17864;SDS011;9058;52.018;4.202;2023-04-10T09:08:47;8.95;;;6.47;;
17864;SDS011;9058;52.018;4.202;2023-04-10T09:11:14;7.38;;;6.38;;
17864;SDS011;9058;52.018;4.202;2023-04-10T09:13:42;6.88;;;6.22;;
17864;SDS011;9058;52.018;4.202;2023-04-10T09:16:09;8.10;;;6.78;;
17864;SDS011;9058;52.018;4.202;2023-04-10T09:18:40;7.22;;;5.63;;
17864;SDS011;9058;52.018;4.202;2023-04-10T09:21:07;6.82;;;6.10;;
17864;SDS011;9058;52.018;4.202;2023-04-10T09:23:34;8.18;;;7.20;;
17864;SDS011;9058;52.018;4.202;2023-04-10T09:26:04;6.90;;;6.30;;
17864;SDS011;9058;52.018;4.202;2023-04-10T09:28:32;7.70;;;6.90;;
17864;SDS011;9058;52.018;4.202;2023-04-10T09:31:00;6.90;;;6.22;;
17864;SDS011;9058;52.018;4.202;2023-04-10T09:33:27;6.82;;;6.15;;
17864;SDS011;9058;52.018;4.202;2023-04-10T09:35:56;7.70;;;6.95;;
17864;SDS011;9058;52.018;4.202;2023-04-10T09:38:23;7.72;;;6.93;;
17864;SDS011;9058;52.018;4.202;2023-04-10T09:40:50;6.75;;;6.15;;
17864;SDS011;9058;52.018;4.202;2023-04-10T09:43:17;8.10;;;7.22;;
17864;SDS011;9058;52.018;4.202;2023-04-10T09:45:48;7.60;;;6.82;;
17864;SDS011;9058;52.018;4.202;2023-04-10T09:48:14;8.50;;;7.70;;
17864;SDS011;9058;52.018;4.202;2023-04-10T09:50:41;8.02;;;7.07;;
17864;SDS011;9058;52.018;4.202;2023-04-10T09:53:08;7.40;;;6.03;;
17864;SDS011;9058;52.018;4.202;2023-04-10T09:55:35;7.20;;;6.60;;
17864;SDS011;9058;52.018;4.202;2023-04-10T09:58:02;7.65;;;6.93;;
17864;SDS011;9058;52.018;4.202;2023-04-10T10:00:29;8.25;;;7.22;;
17864;SDS011;9058;52.018;4.202;2023-04-10T10:02:58;7.32;;;6.63;;
17864;SDS011;9058;52.018;4.202;2023-04-10T10:05:27;7.05;;;6.32;;
17864;SDS011;9058;52.018;4.202;2023-04-10T10:07:55;6.90;;;6.20;;
17864;SDS011;9058;52.018;4.202;2023-04-10T10:10:22;6.90;;;6.10;;
17864;SDS011;9058;52.018;4.202;2023-04-10T10:12:49;6.68;;;5.97;;
17864;SDS011;9058;52.018;4.202;2023-04-10T10:15:18;7.30;;;6.60;;
17864;SDS011;9058;52.018;4.202;2023-04-10T10:17:49;7.20;;;6.38;;
17864;SDS011;9058;52.018;4.202;2023-04-10T10:20:21;7.60;;;6.90;;
17864;SDS011;9058;52.018;4.202;2023-04-10T10:22:49;6.80;;;6.20;;
17864;SDS011;9058;52.018;4.202;2023-04-10T10:25:16;6.25;;;5.65;;
17864;SDS011;9058;52.018;4.202;2023-04-10T10:27:43;7.55;;;6.45;;
17864;SDS011;9058;52.018;4.202;2023-04-10T10:30:10;6.47;;;5.88;;
17864;SDS011;9058;52.018;4.202;2023-04-10T10:32:38;7.88;;;6.32;;
17864;SDS011;9058;52.018;4.202;2023-04-10T10:35:04;6.40;;;5.78;;
17864;SDS011;9058;52.018;4.202;2023-04-10T10:37:33;5.95;;;5.45;;
17864;SDS011;9058;52.018;4.202;2023-04-10T10:40:00;6.40;;;5.80;;
17864;SDS011;9058;52.018;4.202;2023-04-10T10:42:31;7.03;;;6.32;;
17864;SDS011;9058;52.018;4.202;2023-04-10T10:45:02;6.82;;;6.22;;
17864;SDS011;9058;52.018;4.202;2023-04-10T10:47:32;6.75;;;6.15;;
17864;SDS011;9058;52.018;4.202;2023-04-10T10:50:04;6.63;;;5.93;;
17864;SDS011;9058;52.018;4.202;2023-04-10T10:52:39;6.97;;;6.20;;
17864;SDS011;9058;52.018;4.202;2023-04-10T10:57:52;7.10;;;6.40;;
17864;SDS011;9058;52.018;4.202;2023-04-10T11:00:20;6.75;;;6.07;;
17864;SDS011;9058;52.018;4.202;2023-04-10T11:02:59;6.95;;;6.25;;
17864;SDS011;9058;52.018;4.202;2023-04-10T11:05:47;6.28;;;5.78;;
17864;SDS011;9058;52.018;4.202;2023-04-10T11:08:17;6.68;;;6.05;;
17864;SDS011;9058;52.018;4.202;2023-04-10T11:10:57;6.63;;;6.03;;
17864;SDS011;9058;52.018;4.202;2023-04-10T11:13:24;7.00;;;6.30;;
17864;SDS011;9058;52.018;4.202;2023-04-10T11:15:51;6.18;;;5.55;;
17864;SDS011;9058;52.018;4.202;2023-04-10T11:18:17;6.72;;;6.13;;
17864;SDS011;9058;52.018;4.202;2023-04-10T11:23:27;7.35;;;6.18;;
17864;SDS011;9058;52.018;4.202;2023-04-10T11:25:54;6.93;;;6.15;;
17864;SDS011;9058;52.018;4.202;2023-04-10T11:28:33;6.72;;;6.03;;
17864;SDS011;9058;52.018;4.202;2023-04-10T11:31:12;10.43;;;6.20;;
17864;SDS011;9058;52.018;4.202;2023-04-10T11:33:38;6.30;;;5.70;;
17864;SDS011;9058;52.018;4.202;2023-04-10T11:36:05;8.18;;;5.68;;
17864;SDS011;9058;52.018;4.202;2023-04-10T11:38:34;6.80;;;6.20;;
17864;SDS011;9058;52.018;4.202;2023-04-10T11:41:01;6.63;;;5.93;;
17864;SDS011;9058;52.018;4.202;2023-04-10T11:43:30;5.68;;;5.18;;
17864;SDS011;9058;52.018;4.202;2023-04-10T11:45:58;6.43;;;5.68;;
17864;SDS011;9058;52.018;4.202;2023-04-10T11:48:25;5.80;;;5.20;;
17864;SDS011;9058;52.018;4.202;2023-04-10T11:50:52;8.70;;;6.55;;
17864;SDS011;9058;52.018;4.202;2023-04-10T11:53:19;6.95;;;6.22;;
17864;SDS011;9058;52.018;4.202;2023-04-10T11:55:48;6.68;;;6.07;;
17864;SDS011;9058;52.018;4.202;2023-04-10T11:58:20;7.00;;;6.30;;
17864;SDS011;9058;52.018;4.202;2023-04-10T12:00:54;7.28;;;6.57;;
17864;SDS011;9058;52.018;4.202;2023-04-10T12:03:29;8.43;;;7.30;;
17864;SDS011;9058;52.018;4.202;2023-04-10T12:05:55;7.57;;;6.93;;
17864;SDS011;9058;52.018;4.202;2023-04-10T12:08:28;7.95;;;7.15;;
17864;SDS011;9058;52.018;4.202;2023-04-10T12:10:57;7.20;;;6.50;;
17864;SDS011;9058;52.018;4.202;2023-04-10T12:13:24;8.82;;;7.60;;
17864;SDS011;9058;52.018;4.202;2023-04-10T12:15:50;8.68;;;7.30;;
17864;SDS011;9058;52.018;4.202;2023-04-10T12:18:18;9.10;;;7.80;;
17864;SDS011;9058;52.018;4.202;2023-04-10T12:20:44;7.55;;;6.85;;
17864;SDS011;9058;52.018;4.202;2023-04-10T12:23:11;10.23;;;7.68;;
17864;SDS011;9058;52.018;4.202;2023-04-10T12:25:37;8.98;;;8.10;;
17864;SDS011;9058;52.018;4.202;2023-04-10T12:28:06;9.35;;;8.45;;
17864;SDS011;9058;52.018;4.202;2023-04-10T12:30:32;8.90;;;8.07;;
17864;SDS011;9058;52.018;4.202;2023-04-10T12:32:58;10.63;;;8.68;;
17864;SDS011;9058;52.018;4.202;2023-04-10T12:35:37;8.75;;;7.93;;
17864;SDS011;9058;52.018;4.202;2023-04-10T12:38:04;10.23;;;9.23;;
17864;SDS011;9058;52.018;4.202;2023-04-10T12:40:31;8.95;;;8.13;;
17864;SDS011;9058;52.018;4.202;2023-04-10T12:42:57;9.93;;;8.85;;
17864;SDS011;9058;52.018;4.202;2023-04-10T12:48:08;10.52;;;9.43;;
17864;SDS011;9058;52.018;4.202;2023-04-10T12:50:44;9.10;;;8.20;;
17864;SDS011;9058;52.018;4.202;2023-04-10T12:53:11;8.93;;;8.02;;
17864;SDS011;9058;52.018;4.202;2023-04-10T12:55:39;9.82;;;8.75;;
17864;SDS011;9058;52.018;4.202;2023-04-10T12:58:14;12.30;;;9.77;;
17864;SDS011;9058;52.018;4.202;2023-04-10T13:00:44;10.65;;;9.52;;
17864;SDS011;9058;52.018;4.202;2023-04-10T13:03:12;10.45;;;9.27;;
17864;SDS011;9058;52.018;4.202;2023-04-10T13:05:39;10.82;;;9.50;;
17864;SDS011;9058;52.018;4.202;2023-04-10T13:08:06;10.88;;;9.90;;
17864;SDS011;9058;52.018;4.202;2023-04-10T13:10:33;10.73;;;9.63;;
17864;SDS011;9058;52.018;4.202;2023-04-10T13:13:02;11.45;;;9.27;;
17864;SDS011;9058;52.018;4.202;2023-04-10T13:15:29;10.43;;;9.20;;
17864;SDS011;9058;52.018;4.202;2023-04-10T13:17:58;9.88;;;8.55;;
17864;SDS011;9058;52.018;4.202;2023-04-10T13:20:27;11.50;;;10.40;;
17864;SDS011;9058;52.018;4.202;2023-04-10T13:22:53;11.52;;;10.23;;
17864;SDS011;9058;52.018;4.202;2023-04-10T13:25:20;11.40;;;10.20;;
17864;SDS011;9058;52.018;4.202;2023-04-10T13:27:46;10.38;;;9.32;;
17864;SDS011;9058;52.018;4.202;2023-04-10T13:30:13;10.35;;;9.25;;
17864;SDS011;9058;52.018;4.202;2023-04-10T13:32:39;10.20;;;8.50;;
17864;SDS011;9058;52.018;4.202;2023-04-10T13:35:06;9.43;;;8.52;;
17864;SDS011;9058;52.018;4.202;2023-04-10T13:37:34;10.00;;;9.07;;
17864;SDS011;9058;52.018;4.202;2023-04-10T13:40:00;10.52;;;9.45;;
17864;SDS011;9058;52.018;4.202;2023-04-10T13:42:28;11.70;;;10.60;;
17864;SDS011;9058;52.018;4.202;2023-04-10T13:44:56;11.38;;;9.95;;
17864;SDS011;9058;52.018;4.202;2023-04-10T13:47:23;11.05;;;9.95;;
17864;SDS011;9058;52.018;4.202;2023-04-10T13:49:50;11.20;;;10.00;;
17864;SDS011;9058;52.018;4.202;2023-04-10T13:52:17;11.00;;;9.57;;
17864;SDS011;9058;52.018;4.202;2023-04-10T13:54:45;10.77;;;9.70;;
17864;SDS011;9058;52.018;4.202;2023-04-10T13:57:11;10.43;;;9.35;;
17864;SDS011;9058;52.018;4.202;2023-04-10T13:59:38;9.15;;;8.27;;
17864;SDS011;9058;52.018;4.202;2023-04-10T14:02:05;9.75;;;8.70;;
17864;SDS011;9058;52.018;4.202;2023-04-10T14:04:31;11.13;;;8.90;;
17864;SDS011;9058;52.018;4.202;2023-04-10T14:06:58;12.40;;;9.20;;
17864;SDS011;9058;52.018;4.202;2023-04-10T14:09:26;10.57;;;9.40;;
17864;SDS011;9058;52.018;4.202;2023-04-10T14:11:54;10.40;;;9.15;;
17864;SDS011;9058;52.018;4.202;2023-04-10T14:14:21;10.00;;;9.00;;
17864;SDS011;9058;52.018;4.202;2023-04-10T14:16:49;10.98;;;8.77;;
17864;SDS011;9058;52.018;4.202;2023-04-10T14:19:15;11.50;;;10.30;;
17864;SDS011;9058;52.018;4.202;2023-04-10T14:21:42;10.38;;;9.30;;
17864;SDS011;9058;52.018;4.202;2023-04-10T14:24:09;11.43;;;9.52;;
17864;SDS011;9058;52.018;4.202;2023-04-10T14:26:35;11.65;;;10.50;;
17864;SDS011;9058;52.018;4.202;2023-04-10T14:29:04;11.13;;;9.68;;
17864;SDS011;9058;52.018;4.202;2023-04-10T14:31:32;13.43;;;10.50;;
17864;SDS011;9058;52.018;4.202;2023-04-10T14:33:59;11.32;;;9.23;;
17864;SDS011;9058;52.018;4.202;2023-04-10T14:36:26;11.75;;;10.55;;
17864;SDS011;9058;52.018;4.202;2023-04-10T14:38:52;12.70;;;10.98;;
17864;SDS011;9058;52.018;4.202;2023-04-10T14:41:19;13.35;;;11.13;;
17864;SDS011;9058;52.018;4.202;2023-04-10T14:43:46;13.43;;;12.13;;
17864;SDS011;9058;52.018;4.202;2023-04-10T14:46:14;14.55;;;12.93;;
17864;SDS011;9058;52.018;4.202;2023-04-10T14:48:41;16.05;;;13.38;;
17864;SDS011;9058;52.018;4.202;2023-04-10T14:51:07;15.95;;;12.55;;
17864;SDS011;9058;52.018;4.202;2023-04-10T14:53:36;14.55;;;12.43;;
17864;SDS011;9058;52.018;4.202;2023-04-10T14:56:08;15.38;;;13.77;;
17864;SDS011;9058;52.018;4.202;2023-04-10T14:58:34;16.75;;;13.63;;
17864;SDS011;9058;52.018;4.202;2023-04-10T15:01:02;15.55;;;13.90;;
17864;SDS011;9058;52.018;4.202;2023-04-10T15:03:30;18.20;;;14.07;;